Glade Hill, Virginia
Current Conditions -  °F | °C
As of 9:54 PM on Monday 26 Jan 2015 (Local Time) from KROA Reporting Station
Overcast Overcast  
Wind Chill: 25°   Ceiling: 3000
Heat Index: 34°   Visibility: 10mi
Dew Point: 23°   Wind: 12mph
Humidity: 64%   Direction: 290°WNW
Pressure: 29.76"   Gusts: NA
Location:  37.0073°N, 79.7681°W
Report Text: KROA 270254Z 29010KT 10SM BKN030 BKN060 OVC080 01/M05 A2976 RMK AO2 SLP084 T00111050 51016
Loading
Personal Weather Stations






























Interactive Weather Map New forecast layout! Learn more

10-Day Weather Forecast

Advertisements
Track Severe Weather on mobile